Weather at Rosulje Airfield

Public forecast

Using degrees Celsius for public forecast. Weather courtesy of forecast.io.

Closest aviation weather report (METAR) to Rosulje Airfield

Closest report is Niš Constantine the Great Airport, 24.6 nm (45.5 km) ESE.

2024/05/21 17:30 (retrieved 15 minutes ago)

LYNI 211730Z 08012KT 9999 FEW050 23/15 Q1010 NOSIG

Closest aviation forecast (TAF) to Rosulje Airfield

Closest forecast is Niš Constantine the Great Airport, 24.6 nm (45.5 km) ESE.

2024/05/21 12:21 (retrieved 5 hours ago)

TAF LYNI 211100Z 2112/2212 11014KT 9999 SCT040 TX26/2114Z TN15/2203Z TEMPO 2112/2116 24015G25KT 3000 TSRA SCT030CB SCT040 BECMG 2119/2121 05006KT PROB40 TEMPO 2200/2205 4000 TSRA SCT010 SCT030CB BKN035 TEMPO 2209/2212 VRB15G25KT 4000 TSRA SCT030CB SCT040